createdAt,value
2018-02-21T00:00:32.892Z,-2.52
2018-02-21T00:01:33.190Z,-2.56
2018-02-21T00:02:32.856Z,-2.54
2018-02-21T00:03:32.811Z,-2.64
2018-02-21T00:04:32.799Z,-2.72
2018-02-21T00:05:32.878Z,-2.85
2018-02-21T00:06:32.854Z,-2.82
2018-02-21T00:07:33.132Z,-2.90
2018-02-21T00:08:32.866Z,-2.94
2018-02-21T00:09:32.649Z,-3.06
2018-02-21T00:10:32.749Z,-3.09
2018-02-21T00:11:32.707Z,-3.06
2018-02-21T00:12:32.676Z,-3.08
2018-02-21T00:13:33.005Z,-3.10
2018-02-21T00:14:32.529Z,-3.16
2018-02-21T00:15:32.673Z,-3.08
2018-02-21T00:16:32.599Z,-3.12
2018-02-21T00:17:32.570Z,-3.12
2018-02-21T00:18:32.528Z,-3.21
2018-02-21T00:19:32.795Z,-3.24
2018-02-21T00:20:32.536Z,-3.12
2018-02-21T00:21:32.315Z,-3.09
2018-02-21T00:22:32.293Z,-3.09
2018-02-21T00:23:32.344Z,-3.05
2018-02-21T00:24:32.252Z,-2.98
2018-02-21T00:25:32.525Z,-2.98
2018-02-21T00:26:32.178Z,-3.03
2018-02-21T00:27:32.203Z,-3.09
2018-02-21T00:28:32.123Z,-3.15
2018-02-21T00:29:32.104Z,-3.09
2018-02-21T00:30:32.146Z,-3.09
2018-02-21T00:31:32.343Z,-3.20
2018-02-21T00:32:32.057Z,-3.08
2018-02-21T00:33:32.040Z,-3.27
2018-02-21T00:34:31.964Z,-3.30
2018-02-21T00:35:31.934Z,-3.27
2018-02-21T00:36:31.903Z,-3.42
2018-02-21T00:37:31.901Z,-3.38
2018-02-21T00:38:32.226Z,-3.33
2018-02-21T00:39:31.821Z,-3.33
2018-02-21T00:40:31.813Z,-3.29
2018-02-21T00:42:31.790Z,-3.34
2018-02-21T00:44:31.755Z,-3.55
2018-02-21T00:45:31.957Z,-3.47
2018-02-21T00:46:31.716Z,-3.49
2018-02-21T00:47:31.737Z,-3.49
2018-02-21T00:48:31.667Z,-3.60
2018-02-21T00:49:31.615Z,-3.59
2018-02-21T00:50:31.609Z,-3.63
2018-02-21T00:51:31.716Z,-3.55
2018-02-21T00:52:31.766Z,-3.48
2018-02-21T00:53:31.529Z,-3.47
2018-02-21T00:54:31.408Z,-3.52
2018-02-21T00:55:31.467Z,-3.54
2018-02-21T00:56:31.439Z,-3.49
2018-02-21T00:57:31.412Z,-3.44
2018-02-21T00:58:31.381Z,-3.29
2018-02-21T00:59:31.573Z,-3.24
2018-02-21T01:00:31.297Z,-3.29
2018-02-21T01:01:31.297Z,-3.21
2018-02-21T01:02:31.268Z,-3.09
2018-02-21T01:03:31.243Z,-3.13
2018-02-21T01:04:31.235Z,-3.09
2018-02-21T01:05:31.185Z,-3.09
2018-02-21T01:06:31.456Z,-3.02
2018-02-21T01:07:31.113Z,-3.03
2018-02-21T01:08:31.028Z,-3.06
2018-02-21T01:09:31.073Z,-3.26
2018-02-21T01:10:31.085Z,-3.23
2018-02-21T01:11:31.009Z,-3.23
2018-02-21T01:12:30.985Z,-3.21
2018-02-21T01:13:31.194Z,-3.29
2018-02-21T01:14:30.874Z,-3.21
2018-02-21T01:15:30.821Z,-3.21
2018-02-21T01:16:30.791Z,-3.26
2018-02-21T01:17:30.761Z,-3.24
2018-02-21T01:18:30.735Z,-3.23
2018-02-21T01:19:30.704Z,-3.27
2018-02-21T01:20:30.979Z,-3.24
2018-02-21T01:21:30.700Z,-3.16
2018-02-21T01:22:30.630Z,-3.15
2018-02-21T01:23:30.609Z,-3.02
2018-02-21T01:24:30.570Z,-3.08
2018-02-21T01:25:30.542Z,-3.09
2018-02-21T01:26:30.811Z,-3.02
2018-02-21T01:27:30.480Z,-3.15
2018-02-21T01:28:30.504Z,-3.23
2018-02-21T01:29:30.473Z,-3.23
2018-02-21T01:30:30.399Z,-3.16
2018-02-21T01:31:30.589Z,-3.29
2018-02-21T01:32:30.760Z,-3.36
2018-02-21T01:33:30.430Z,-3.36
2018-02-21T01:34:30.402Z,-3.34
2018-02-21T01:35:30.259Z,-3.49
2018-02-21T01:36:30.230Z,-3.51
2018-02-21T01:37:30.201Z,-3.47
2018-02-21T01:38:30.470Z,-3.60
2018-02-21T01:39:30.144Z,-3.59
2018-02-21T01:40:30.334Z,-3.60
2018-02-21T01:42:30.058Z,-3.91
2018-02-21T01:43:30.034Z,-3.89
2018-02-21T01:44:30.302Z,-3.85
2018-02-21T01:45:30.095Z,-3.97
2018-02-21T01:46:30.096Z,-4.00
2018-02-21T01:47:29.950Z,-3.96
2018-02-21T01:48:29.960Z,-3.96
2018-02-21T01:49:29.861Z,-4.03
2018-02-21T01:50:30.142Z,-4.05
2018-02-21T01:51:29.883Z,-4.09
2018-02-21T01:52:29.849Z,-4.02
2018-02-21T01:53:29.768Z,-4.03
2018-02-21T01:54:29.807Z,-4.00
2018-02-21T01:55:29.773Z,-4.05
2018-02-21T01:56:29.747Z,-4.02
2018-02-21T01:57:29.939Z,-3.97
2018-02-21T01:58:29.605Z,-4.02
2018-02-21T01:59:29.679Z,-4.00
2018-02-21T02:00:29.550Z,-3.96
2018-02-21T02:01:29.527Z,-3.99
2018-02-21T02:02:29.497Z,-3.96
2018-02-21T02:03:29.468Z,-4.06
2018-02-21T02:04:29.740Z,-4.00
2018-02-21T02:05:29.409Z,-4.03
2018-02-21T02:06:29.381Z,-4.02
2018-02-21T02:07:29.355Z,-4.02
2018-02-21T02:08:29.417Z,-3.92
2018-02-21T02:09:29.401Z,-3.91
2018-02-21T02:10:29.363Z,-3.79
2018-02-21T02:11:29.645Z,-3.78
2018-02-21T02:12:29.332Z,-3.70
2018-02-21T02:13:29.307Z,-3.62
2018-02-21T02:15:29.187Z,-3.69
2018-02-21T02:16:29.107Z,-3.65
2018-02-21T02:17:29.086Z,-3.78
2018-02-21T02:18:29.354Z,-3.78
2018-02-21T02:19:29.026Z,-3.67
2018-02-21T02:20:29.054Z,-3.74
2018-02-21T02:21:28.965Z,-3.91
2018-02-21T02:22:28.939Z,-3.85
2018-02-21T02:23:28.912Z,-3.91
2018-02-21T02:24:28.932Z,-3.92
2018-02-21T02:25:29.154Z,-4.06
2018-02-21T02:26:28.870Z,-3.96
2018-02-21T02:27:28.880Z,-4.00
2018-02-21T02:28:28.842Z,-3.99
2018-02-21T02:30:28.756Z,-4.09
2018-02-21T02:31:28.684Z,-4.10
2018-02-21T02:32:29.142Z,-4.07
2018-02-21T02:33:28.766Z,-4.07
2018-02-21T02:34:28.782Z,-4.18
2018-02-21T02:37:29.906Z,-4.17
2018-02-21T02:39:28.939Z,-4.14
2018-02-21T02:40:28.606Z,-4.14
2018-02-21T02:41:28.583Z,-3.99
2018-02-21T02:43:28.505Z,-3.82
2018-02-21T02:44:28.450Z,-3.77
2018-02-21T02:45:28.414Z,-3.59
2018-02-21T02:46:28.744Z,-3.57
2018-02-21T02:47:28.364Z,-3.44
2018-02-21T02:48:28.329Z,-3.42
2018-02-21T02:49:28.299Z,-3.36
2018-02-21T02:50:28.391Z,-3.31
2018-02-21T02:51:28.290Z,-3.29
2018-02-21T02:52:28.216Z,-3.39
2018-02-21T02:53:28.570Z,-3.30
2018-02-21T02:54:28.159Z,-3.51
2018-02-21T02:55:27.987Z,-3.52
2018-02-21T02:56:27.957Z,-3.59
2018-02-21T02:57:27.927Z,-3.78
2018-02-21T02:58:27.904Z,-3.77
2018-02-21T02:59:27.870Z,-3.87
2018-02-21T03:00:28.140Z,-3.91
2018-02-21T03:01:27.861Z,-3.82
2018-02-21T03:02:27.784Z,-3.87
2018-02-21T03:03:27.759Z,-3.78
2018-02-21T03:04:27.726Z,-3.69
2018-02-21T03:05:27.699Z,-3.65
2018-02-21T03:06:27.973Z,-3.62
2018-02-21T03:07:27.639Z,-3.62
2018-02-21T03:08:27.611Z,-3.74
2018-02-21T03:09:27.587Z,-3.74
2018-02-21T03:11:27.525Z,-3.94
2018-02-21T03:12:27.798Z,-3.92
2018-02-21T03:13:27.469Z,-3.99
2018-02-21T03:15:27.419Z,-3.96
2018-02-21T03:16:27.384Z,-4.06
2018-02-21T03:17:27.440Z,-4.00
2018-02-21T03:18:27.665Z,-4.02
2018-02-21T03:20:27.348Z,-3.99
2018-02-21T03:22:27.215Z,-3.91
2018-02-21T03:24:27.238Z,-3.79
2018-02-21T03:25:27.429Z,-3.87
2018-02-21T03:26:27.097Z,-3.85
2018-02-21T03:27:27.066Z,-3.67
2018-02-21T03:28:27.087Z,-3.78
2018-02-21T03:29:27.011Z,-3.78
2018-02-21T03:30:26.982Z,-3.70
2018-02-21T03:31:27.253Z,-3.72
2018-02-21T03:32:26.934Z,-3.87
2018-02-21T03:33:26.903Z,-3.89
2018-02-21T03:34:26.867Z,-3.88
2018-02-21T03:35:26.844Z,-3.89
2018-02-21T03:36:26.807Z,-3.91
2018-02-21T03:37:27.085Z,-3.94
2018-02-21T03:38:26.752Z,-3.97
2018-02-21T03:39:26.726Z,-4.02
2018-02-21T03:40:26.704Z,-3.94
2018-02-21T03:41:26.664Z,-4.06
2018-02-21T03:42:26.633Z,-4.09
2018-02-21T03:44:26.579Z,-4.12
2018-02-21T03:45:26.855Z,-4.18
2018-02-21T03:46:26.519Z,-4.15
2018-02-21T03:47:26.493Z,-4.27
2018-02-21T03:48:26.464Z,-4.17
2018-02-21T03:49:26.437Z,-4.31
2018-02-21T03:51:26.380Z,-4.30
2018-02-21T03:52:26.646Z,-4.36
2018-02-21T03:53:26.317Z,-4.36
2018-02-21T03:55:26.258Z,-4.52
2018-02-21T03:56:26.231Z,-4.59
2018-02-21T03:57:26.201Z,-4.59
2018-02-21T03:58:26.174Z,-4.57
2018-02-21T03:59:26.455Z,-4.52
2018-02-21T04:00:26.118Z,-4.48
2018-02-21T04:01:26.086Z,-4.49
2018-02-21T04:02:26.061Z,-4.42
2018-02-21T04:03:26.032Z,-4.42
2018-02-21T04:04:25.999Z,-4.39
2018-02-21T04:05:25.969Z,-4.39
2018-02-21T04:06:26.240Z,-4.36
2018-02-21T04:07:25.935Z,-4.25
2018-02-21T04:09:25.855Z,-4.31
2018-02-21T04:10:25.903Z,-4.17
2018-02-21T04:11:25.875Z,-4.18
2018-02-21T04:12:25.851Z,-4.27
2018-02-21T04:13:26.068Z,-4.25
2018-02-21T04:14:25.709Z,-4.21
2018-02-21T04:15:25.769Z,-4.17
2018-02-21T04:16:25.734Z,-4.14
2018-02-21T04:17:25.729Z,-4.17
2018-02-21T04:18:25.592Z,-4.12
2018-02-21T04:19:25.571Z,-4.17
2018-02-21T04:20:25.841Z,-4.09
2018-02-21T04:21:25.509Z,-4.15
2018-02-21T04:22:25.494Z,-4.12
2018-02-21T04:23:25.449Z,-4.02
2018-02-21T04:24:25.420Z,-3.92
2018-02-21T04:25:25.392Z,-3.91
2018-02-21T04:26:25.663Z,-3.88
2018-02-21T04:27:25.332Z,-3.82
2018-02-21T04:28:25.305Z,-3.74
2018-02-21T04:29:25.324Z,-3.79
2018-02-21T04:30:25.275Z,-3.78
2018-02-21T04:31:25.224Z,-3.77
2018-02-21T04:32:25.486Z,-3.59
2018-02-21T04:33:25.165Z,-3.51
2018-02-21T04:34:25.130Z,-3.60
2018-02-21T04:35:25.101Z,-3.55
2018-02-21T04:36:25.070Z,-3.48
2018-02-21T04:37:25.046Z,-3.48
2018-02-21T04:38:25.326Z,-3.52
2018-02-21T04:39:25.034Z,-3.49
2018-02-21T04:40:24.961Z,-3.48
2018-02-21T04:43:24.868Z,-3.51
2018-02-21T04:44:25.142Z,-3.51
2018-02-21T04:45:24.816Z,-3.54
2018-02-21T04:46:24.780Z,-3.52
2018-02-21T04:47:24.761Z,-3.60
2018-02-21T04:48:24.735Z,-3.54
2018-02-21T04:49:24.745Z,-3.55
2018-02-21T04:50:24.971Z,-3.62
2018-02-21T04:51:24.648Z,-3.63
2018-02-21T04:52:24.614Z,-3.74
2018-02-21T04:53:24.582Z,-3.85
2018-02-21T04:54:24.559Z,-3.87
2018-02-21T04:55:24.530Z,-3.89
2018-02-21T04:56:24.795Z,-3.87
2018-02-21T04:57:24.468Z,-4.03
2018-02-21T04:58:24.448Z,-3.99
2018-02-21T04:59:24.413Z,-4.09
2018-02-21T05:00:24.388Z,-4.10
2018-02-21T05:02:24.323Z,-4.12
2018-02-21T05:03:24.600Z,-4.14
2018-02-21T05:04:24.267Z,-4.15
2018-02-21T05:05:24.245Z,-4.34
2018-02-21T05:06:24.208Z,-4.31
2018-02-21T05:07:24.180Z,-4.28
2018-02-21T05:08:24.154Z,-4.28
2018-02-21T05:09:24.125Z,-4.31
2018-02-21T05:10:24.394Z,-4.25
2018-02-21T05:11:24.068Z,-4.30
2018-02-21T05:12:24.053Z,-4.38
2018-02-21T05:13:24.010Z,-4.35
2018-02-21T05:14:23.980Z,-4.36
2018-02-21T05:15:23.953Z,-4.39
2018-02-21T05:16:23.932Z,-4.27
2018-02-21T05:17:24.194Z,-4.31
2018-02-21T05:18:23.882Z,-4.30
2018-02-21T05:19:23.840Z,-4.31
2018-02-21T05:20:23.818Z,-4.30
2018-02-21T05:21:23.782Z,-4.38
2018-02-21T05:22:23.752Z,-4.31
2018-02-21T05:23:23.733Z,-4.38
2018-02-21T05:24:24.006Z,-4.45
2018-02-21T05:25:23.668Z,-4.49
2018-02-21T05:26:23.639Z,-4.46
2018-02-21T05:27:23.611Z,-4.54
2018-02-21T05:28:23.580Z,-4.46
2018-02-21T05:29:23.563Z,-4.46
2018-02-21T05:30:23.524Z,-4.46
2018-02-21T05:31:23.844Z,-4.57
2018-02-21T05:32:23.466Z,-4.56
2018-02-21T05:33:23.448Z,-4.63
2018-02-21T05:35:23.379Z,-4.59
2018-02-21T05:36:23.431Z,-4.70
2018-02-21T05:37:23.321Z,-4.66
2018-02-21T05:38:23.627Z,-4.66
2018-02-21T05:39:23.351Z,-4.70
2018-02-21T05:40:23.350Z,-4.70
2018-02-21T05:41:23.205Z,-4.67
2018-02-21T05:42:23.180Z,-4.67
2018-02-21T05:43:23.152Z,-4.59
2018-02-21T05:44:23.121Z,-4.63
2018-02-21T05:45:23.403Z,-4.63
2018-02-21T05:46:23.063Z,-4.71
2018-02-21T05:47:23.035Z,-4.75
2018-02-21T05:48:23.043Z,-4.77
2018-02-21T05:50:22.952Z,-4.71
2018-02-21T05:51:23.221Z,-4.77
2018-02-21T05:52:22.889Z,-4.67
2018-02-21T05:53:22.862Z,-4.71
2018-02-21T05:54:22.831Z,-4.75
2018-02-21T05:55:22.862Z,-4.78
2018-02-21T05:56:22.773Z,-4.75
2018-02-21T05:57:23.046Z,-4.73
2018-02-21T05:58:22.718Z,-4.74
2018-02-21T05:59:22.688Z,-4.71
2018-02-21T06:00:22.706Z,-4.77
2018-02-21T06:01:22.628Z,-4.75
2018-02-21T06:02:22.598Z,-4.74
2018-02-21T06:03:23.049Z,-4.84
2018-02-21T06:04:22.540Z,-4.81
2018-02-21T06:05:22.511Z,-4.98
2018-02-21T06:06:22.565Z,-4.99
2018-02-21T06:07:22.457Z,-4.96
2018-02-21T06:08:22.427Z,-4.98
2018-02-21T06:10:23.061Z,-4.92
2018-02-21T06:11:22.338Z,-4.95
2018-02-21T06:12:22.316Z,-4.96
2018-02-21T06:13:22.279Z,-4.95
2018-02-21T06:14:22.248Z,-4.99
2018-02-21T06:15:22.226Z,-5.09
2018-02-21T06:16:22.640Z,-4.96
2018-02-21T06:17:22.169Z,-5.01
2018-02-21T06:18:22.143Z,-4.98
2018-02-21T06:19:22.112Z,-4.95
2018-02-21T06:20:22.075Z,-5.01
2018-02-21T06:21:22.098Z,-4.93
2018-02-21T06:22:22.026Z,-4.85
2018-02-21T06:23:22.297Z,-4.73
2018-02-21T06:24:21.958Z,-4.75
2018-02-21T06:25:22.020Z,-4.49
2018-02-21T06:26:21.999Z,-4.45
2018-02-21T06:27:21.874Z,-4.39
2018-02-21T06:28:21.876Z,-4.36
2018-02-21T06:29:21.924Z,-4.41
2018-02-21T06:30:22.085Z,-4.39
2018-02-21T06:31:21.754Z,-4.46
2018-02-21T06:32:21.728Z,-4.48
2018-02-21T06:33:21.703Z,-4.44
2018-02-21T06:34:22.505Z,-4.42
2018-02-21T06:35:21.641Z,-4.46
2018-02-21T06:36:21.609Z,-4.46
2018-02-21T06:37:21.888Z,-4.52
2018-02-21T06:38:21.552Z,-4.49
2018-02-21T06:39:21.520Z,-4.42
2018-02-21T06:40:21.576Z,-4.53
2018-02-21T06:41:21.466Z,-4.56
2018-02-21T06:42:21.439Z,-4.52
2018-02-21T06:43:21.403Z,-4.52
2018-02-21T06:46:21.619Z,-4.52
2018-02-21T06:47:21.290Z,-4.59
2018-02-21T06:48:21.260Z,-4.62
2018-02-21T06:49:21.230Z,-4.62
2018-02-21T06:50:21.199Z,-4.66
2018-02-21T06:51:21.251Z,-4.66
2018-02-21T06:52:21.149Z,-4.64
2018-02-21T06:53:21.451Z,-4.63
2018-02-21T06:54:21.170Z,-4.67
2018-02-21T06:57:20.996Z,-4.70
2018-02-21T06:58:20.969Z,-4.64
2018-02-21T06:59:20.940Z,-4.63
2018-02-21T07:00:21.212Z,-4.54
2018-02-21T07:01:20.887Z,-4.49
2018-02-21T07:02:20.855Z,-4.42
2018-02-21T07:03:20.823Z,-4.38
2018-02-21T07:05:20.784Z,-4.27
2018-02-21T07:06:20.739Z,-4.07
2018-02-21T07:07:21.009Z,-4.17
2018-02-21T07:08:20.795Z,-4.09
2018-02-21T07:09:20.731Z,-4.06
2018-02-21T07:10:20.703Z,-4.10
2018-02-21T07:11:20.597Z,-3.97
2018-02-21T07:12:20.668Z,-3.99
2018-02-21T07:13:20.784Z,-4.02
2018-02-21T07:14:20.502Z,-3.91
2018-02-21T07:15:20.562Z,-3.81
2018-02-21T07:16:20.632Z,-3.72
2018-02-21T07:17:20.484Z,-3.60
2018-02-21T07:18:20.400Z,-3.48
2018-02-21T07:19:20.693Z,-3.47
2018-02-21T07:20:20.382Z,-3.44
2018-02-21T07:21:20.544Z,-3.42
2018-02-21T07:22:20.281Z,-3.30
2018-02-21T07:23:20.247Z,-3.30
2018-02-21T07:24:20.220Z,-3.16
2018-02-21T07:25:20.921Z,-3.27
2018-02-21T07:26:20.208Z,-3.26
2018-02-21T07:27:20.245Z,-2.95
2018-02-21T07:28:20.184Z,-2.84
2018-02-21T07:29:20.076Z,-2.54
2018-02-21T07:30:20.058Z,-2.30
2018-02-21T07:31:20.349Z,-2.12
2018-02-21T07:32:19.997Z,-1.97
2018-02-21T07:33:20.021Z,-1.88
2018-02-21T07:34:19.946Z,-1.72
2018-02-21T07:35:19.913Z,-1.52
2018-02-21T07:36:19.884Z,-1.26
2018-02-21T07:38:20.121Z,-0.70
2018-02-21T07:39:19.795Z,-0.46
2018-02-21T07:41:19.853Z,0.09
2018-02-21T07:42:19.721Z,0.27
2018-02-21T07:43:19.770Z,0.44
2018-02-21T07:44:19.663Z,0.53
2018-02-21T07:45:19.934Z,0.67
2018-02-21T07:46:19.630Z,0.76
2018-02-21T07:47:19.665Z,1.00
2018-02-21T07:48:19.561Z,1.12
2018-02-21T07:49:19.540Z,1.17
2018-02-21T07:50:19.502Z,1.21
2018-02-21T07:51:19.563Z,1.18
2018-02-21T07:52:19.835Z,1.52
2018-02-21T07:53:19.424Z,1.66
2018-02-21T07:54:19.411Z,1.74
2018-02-21T07:55:19.374Z,1.80
2018-02-21T07:56:19.350Z,2.04
2018-02-21T07:57:19.368Z,2.15
2018-02-21T07:58:19.298Z,1.97
2018-02-21T07:59:19.584Z,1.87
2018-02-21T08:00:19.252Z,1.92
2018-02-21T08:01:19.228Z,1.66
2018-02-21T08:02:19.253Z,1.62
2018-02-21T08:03:19.184Z,1.48
2018-02-21T08:04:19.154Z,1.82
2018-02-21T08:05:19.137Z,2.11
2018-02-21T08:06:19.420Z,2.55
2018-02-21T08:07:19.084Z,2.78
2018-02-21T08:08:19.115Z,2.65
2018-02-21T08:09:19.095Z,2.65
2018-02-21T08:10:19.017Z,2.45
2018-02-21T08:11:18.993Z,2.19
2018-02-21T08:12:18.970Z,1.77
2018-02-21T08:13:19.251Z,1.44
2018-02-21T08:14:18.925Z,1.63
2018-02-21T08:15:18.957Z,2.29
2018-02-21T08:16:19.370Z,2.93
2018-02-21T08:17:18.860Z,3.30
2018-02-21T08:18:18.847Z,3.54
2018-02-21T08:19:18.816Z,3.82
2018-02-21T08:20:19.105Z,4.06
2018-02-21T08:21:18.821Z,4.08
2018-02-21T08:22:18.749Z,4.02
2018-02-21T08:23:18.730Z,3.56
2018-02-21T08:24:18.715Z,3.04
2018-02-21T08:25:18.686Z,2.55
2018-02-21T08:26:18.720Z,2.12
2018-02-21T08:27:18.948Z,1.67
2018-02-21T08:28:18.642Z,1.45
2018-02-21T08:29:18.610Z,1.31
2018-02-21T08:30:18.582Z,1.38
2018-02-21T08:31:18.574Z,1.27
2018-02-21T08:32:18.671Z,1.45
2018-02-21T08:33:18.826Z,1.18
2018-02-21T08:34:18.503Z,1.10
2018-02-21T08:35:18.483Z,0.98
2018-02-21T08:36:18.459Z,0.98
2018-02-21T08:37:18.438Z,0.82
2018-02-21T08:38:18.419Z,0.87
2018-02-21T08:39:18.705Z,0.80
2018-02-21T08:40:18.375Z,0.81
2018-02-21T08:41:18.359Z,0.98
2018-02-21T08:42:18.339Z,1.21
2018-02-21T08:43:18.320Z,1.49
2018-02-21T08:44:18.293Z,1.63
2018-02-21T08:45:18.579Z,1.57
2018-02-21T08:46:18.265Z,1.62
2018-02-21T08:47:18.581Z,1.92
2018-02-21T08:48:18.309Z,2.04
2018-02-21T08:49:18.205Z,2.07
2018-02-21T08:50:18.165Z,2.03
2018-02-21T08:51:19.370Z,1.89
2018-02-21T08:53:18.161Z,2.55
2018-02-21T08:54:18.202Z,3.09
2018-02-21T08:55:18.274Z,3.30
2018-02-21T08:56:18.060Z,3.37
2018-02-21T08:57:18.388Z,3.49
2018-02-21T08:58:18.467Z,3.35
2018-02-21T08:59:17.982Z,2.91
2018-02-21T09:00:18.092Z,2.71
2018-02-21T09:01:18.018Z,2.28
2018-02-21T09:02:17.973Z,2.07
2018-02-21T09:03:18.190Z,1.93
2018-02-21T09:04:18.296Z,1.74
2018-02-21T09:05:17.859Z,1.62
2018-02-21T09:06:17.869Z,1.64
2018-02-21T09:07:17.817Z,1.52
2018-02-21T09:08:17.843Z,1.44
2018-02-21T09:09:17.768Z,1.36
2018-02-21T09:10:18.049Z,1.42
2018-02-21T09:11:17.741Z,1.44
2018-02-21T09:12:17.840Z,1.48
2018-02-21T09:13:17.680Z,1.69
2018-02-21T09:14:17.660Z,2.06
2018-02-21T09:15:17.650Z,2.54
2018-02-21T09:16:17.621Z,3.60
2018-02-21T09:17:17.893Z,4.61
2018-02-21T09:18:17.584Z,5.09
2018-02-21T09:19:17.680Z,5.54
2018-02-21T09:20:17.531Z,5.66
2018-02-21T09:21:17.518Z,5.51
2018-02-21T09:22:17.489Z,4.93
2018-02-21T09:23:17.471Z,5.04
2018-02-21T09:24:17.902Z,5.43
2018-02-21T09:25:17.433Z,5.50
2018-02-21T09:26:17.416Z,5.88
2018-02-21T09:27:17.392Z,5.55
2018-02-21T09:28:17.420Z,5.57
2018-02-21T09:29:17.348Z,5.00
2018-02-21T09:30:17.330Z,4.75
2018-02-21T09:31:17.612Z,4.18
2018-02-21T09:32:17.297Z,4.26
2018-02-21T09:33:17.368Z,4.61
2018-02-21T09:34:17.255Z,4.78
2018-02-21T09:35:17.240Z,4.51
2018-02-21T09:36:17.314Z,5.32
2018-02-21T09:37:17.281Z,5.93
2018-02-21T09:38:17.640Z,5.40
2018-02-21T09:39:17.161Z,5.59
2018-02-21T09:40:17.143Z,5.52
2018-02-21T09:41:17.127Z,5.29
2018-02-21T09:42:17.107Z,5.33
2018-02-21T09:43:17.089Z,5.91
2018-02-21T09:44:17.079Z,6.16
2018-02-21T09:45:17.360Z,6.42
2018-02-21T09:46:17.040Z,6.09
2018-02-21T09:47:17.023Z,5.95
2018-02-21T09:48:17.023Z,5.67
2018-02-21T09:49:16.989Z,5.29
2018-02-21T09:50:17.021Z,5.25
2018-02-21T09:51:16.951Z,5.18
2018-02-21T09:52:17.242Z,5.30
2018-02-21T09:53:16.940Z,4.98
2018-02-21T09:54:16.906Z,5.14
2018-02-21T09:55:16.909Z,5.37
2018-02-21T09:56:16.878Z,5.61
2018-02-21T09:57:17.550Z,5.40
2018-02-21T09:58:17.225Z,5.77
2018-02-21T09:59:16.877Z,5.84
2018-02-21T10:00:16.818Z,5.30
2018-02-21T10:01:16.928Z,5.62
2018-02-21T10:02:17.014Z,5.97
2018-02-21T10:03:16.751Z,5.85
2018-02-21T10:04:17.035Z,6.11
2018-02-21T10:05:16.718Z,6.32
2018-02-21T10:06:16.853Z,6.42
2018-02-21T10:07:16.693Z,6.19
2018-02-21T10:08:16.750Z,6.21
2018-02-21T10:09:16.699Z,6.46
2018-02-21T10:10:16.945Z,6.16
2018-02-21T10:11:16.627Z,7.00
2018-02-21T10:12:16.598Z,7.39
2018-02-21T10:13:16.583Z,7.88
2018-02-21T10:14:16.617Z,8.32
2018-02-21T10:15:16.970Z,8.17
2018-02-21T10:16:16.838Z,8.41
2018-02-21T10:17:16.520Z,8.71
2018-02-21T10:18:16.509Z,9.08
2018-02-21T10:19:16.576Z,9.09
2018-02-21T10:20:16.532Z,9.23
2018-02-21T10:21:16.462Z,8.32
2018-02-21T10:22:16.765Z,7.61
2018-02-21T10:23:16.433Z,6.92
2018-02-21T10:24:16.410Z,6.47
2018-02-21T10:25:16.449Z,6.53
2018-02-21T10:26:16.392Z,6.61
2018-02-21T10:27:16.368Z,6.50
2018-02-21T10:28:16.653Z,6.50
2018-02-21T10:29:16.339Z,6.56
2018-02-21T10:30:16.380Z,6.18
2018-02-21T10:31:16.314Z,6.09
2018-02-21T10:32:16.375Z,6.40
2018-02-21T10:33:16.286Z,6.74
2018-02-21T10:34:16.564Z,7.57
2018-02-21T10:35:16.248Z,8.19
2018-02-21T10:36:16.234Z,8.60
2018-02-21T10:37:16.221Z,8.39
2018-02-21T10:38:16.214Z,8.14
2018-02-21T10:39:16.285Z,8.17
2018-02-21T10:40:16.264Z,7.68
2018-02-21T10:41:16.522Z,7.49
2018-02-21T10:42:16.235Z,7.55
2018-02-21T10:43:16.138Z,7.61
2018-02-21T10:44:16.122Z,7.50
2018-02-21T10:45:16.112Z,7.31
2018-02-21T10:46:16.179Z,7.01
2018-02-21T10:47:16.163Z,7.11
2018-02-21T10:48:16.372Z,6.91
2018-02-21T10:49:16.062Z,6.91
2018-02-21T10:50:16.126Z,7.54
2018-02-21T10:51:16.114Z,7.83
2018-02-21T10:52:16.018Z,7.60
2018-02-21T10:53:16.082Z,7.39
2018-02-21T10:54:15.982Z,7.13
2018-02-21T10:55:16.280Z,6.73
2018-02-21T10:56:16.051Z,6.35
2018-02-21T10:57:16.037Z,6.34
2018-02-21T10:58:15.942Z,6.97
2018-02-21T10:59:15.918Z,7.37
2018-02-21T11:00:15.913Z,7.81
2018-02-21T11:01:15.939Z,7.77
2018-02-21T11:02:16.175Z,8.16
2018-02-21T11:03:15.862Z,7.57
2018-02-21T11:04:15.854Z,7.71
2018-02-21T11:05:15.849Z,7.39
2018-02-21T11:06:15.874Z,7.42
2018-02-21T11:07:15.809Z,7.03
2018-02-21T11:08:15.807Z,7.31
2018-02-21T11:09:16.093Z,7.08
2018-02-21T11:10:16.336Z,6.83
2018-02-21T11:11:15.810Z,6.83
2018-02-21T11:12:15.837Z,6.92
2018-02-21T11:13:15.724Z,6.43
2018-02-21T11:14:15.712Z,6.21
2018-02-21T11:15:15.787Z,6.46
2018-02-21T11:16:16.065Z,6.52
2018-02-21T11:17:15.800Z,6.70
2018-02-21T11:18:15.709Z,6.86
2018-02-21T11:19:15.726Z,6.83
2018-02-21T11:20:15.633Z,6.43
2018-02-21T11:21:15.610Z,6.68
2018-02-21T11:22:15.680Z,6.88
2018-02-21T11:23:16.269Z,7.52
2018-02-21T11:24:15.604Z,7.15
2018-02-21T11:25:15.665Z,7.15
2018-02-21T11:27:15.865Z,8.41
2018-02-21T11:28:16.974Z,8.92
2018-02-21T11:30:19.217Z,10.34
2018-02-21T11:31:16.874Z,10.42
2018-02-21T11:32:16.654Z,10.20
2018-02-21T11:33:17.801Z,9.62
2018-02-21T11:34:15.648Z,10.24
2018-02-21T11:35:15.717Z,10.72
2018-02-21T11:36:15.393Z,10.64
2018-02-21T11:37:15.449Z,10.61
2018-02-21T11:38:15.369Z,10.58
2018-02-21T11:39:15.361Z,10.73
2018-02-21T11:40:15.351Z,11.03
2018-02-21T11:41:15.708Z,11.15
2018-02-21T11:42:15.313Z,10.68
2018-02-21T11:43:15.353Z,10.70
2018-02-21T11:44:15.291Z,10.73
2018-02-21T11:45:15.277Z,10.80
2018-02-21T11:46:15.269Z,10.93
2018-02-21T11:47:15.557Z,10.72
2018-02-21T11:48:15.246Z,10.78
2018-02-21T11:49:15.234Z,11.13
2018-02-21T11:50:15.237Z,11.46
2018-02-21T11:51:15.208Z,11.40
2018-02-21T11:52:15.200Z,11.34
2018-02-21T11:53:15.491Z,11.08
2018-02-21T11:54:15.173Z,10.83
2018-02-21T11:55:15.176Z,11.28
2018-02-21T11:56:15.159Z,11.36
2018-02-21T11:57:15.148Z,11.79
2018-02-21T11:58:15.131Z,11.27
2018-02-21T11:59:15.419Z,11.12
2018-02-21T12:00:15.136Z,11.20
2018-02-21T12:01:15.378Z,11.41
2018-02-21T12:02:15.092Z,10.72
2018-02-21T12:03:15.093Z,10.57
2018-02-21T12:04:15.067Z,11.09
2018-02-21T12:05:15.367Z,11.09
2018-02-21T12:06:15.309Z,11.23
2018-02-21T12:07:15.046Z,11.82
2018-02-21T12:08:15.029Z,11.69
2018-02-21T12:09:15.025Z,11.80
2018-02-21T12:10:15.013Z,11.74
2018-02-21T12:11:15.060Z,12.32
2018-02-21T12:12:15.298Z,12.41
2018-02-21T12:13:14.979Z,11.87
2018-02-21T12:14:14.977Z,10.72
2018-02-21T12:15:14.990Z,9.14
2018-02-21T12:16:15.108Z,8.96
2018-02-21T12:17:14.953Z,8.62
2018-02-21T12:18:14.933Z,9.12
2018-02-21T12:19:15.324Z,9.14
2018-02-21T12:20:14.998Z,8.74
2018-02-21T12:21:14.932Z,8.21
2018-02-21T12:22:14.910Z,7.69
2018-02-21T12:23:14.914Z,7.81
2018-02-21T12:24:14.875Z,7.52
2018-02-21T12:25:15.186Z,7.66
2018-02-21T12:26:15.351Z,7.64
2018-02-21T12:27:14.977Z,7.49
2018-02-21T12:28:14.967Z,7.54
2018-02-21T12:29:14.815Z,7.86
2018-02-21T12:30:14.806Z,8.14
2018-02-21T12:31:14.974Z,8.53
2018-02-21T12:32:14.932Z,9.23
2018-02-21T12:33:14.860Z,9.77
2018-02-21T12:34:14.835Z,10.68
2018-02-21T12:35:14.750Z,11.12
2018-02-21T12:36:14.730Z,11.33
2018-02-21T12:37:14.718Z,11.51
2018-02-21T12:38:14.707Z,10.94
2018-02-21T12:39:14.997Z,9.98
2018-02-21T12:40:14.714Z,10.02
2018-02-21T12:41:14.752Z,9.78
2018-02-21T12:42:14.672Z,10.06
2018-02-21T12:43:14.656Z,10.23
2018-02-21T12:44:14.635Z,10.61
2018-02-21T12:45:14.628Z,10.94
2018-02-21T12:46:14.918Z,11.00
2018-02-21T12:47:14.602Z,10.95
2018-02-21T12:48:14.598Z,11.05
2018-02-21T12:49:14.584Z,11.22
2018-02-21T12:50:14.600Z,10.78
2018-02-21T12:51:14.613Z,10.68
2018-02-21T12:52:14.550Z,10.70
2018-02-21T12:53:14.888Z,10.05
2018-02-21T12:54:14.526Z,9.54
2018-02-21T12:56:14.568Z,8.56
2018-02-21T12:57:14.504Z,8.46
2018-02-21T12:58:14.553Z,8.13
2018-02-21T12:59:14.782Z,8.72
2018-02-21T13:00:14.473Z,8.83
2018-02-21T13:01:14.499Z,8.34
2018-02-21T13:02:14.438Z,8.17
2018-02-21T13:04:14.419Z,7.55
2018-02-21T13:05:14.409Z,7.52
2018-02-21T13:06:14.700Z,7.21
2018-02-21T13:07:14.384Z,7.00
2018-02-21T13:08:14.381Z,7.22
2018-02-21T13:09:14.362Z,7.55
2018-02-21T13:10:14.362Z,7.88
2018-02-21T13:12:14.621Z,8.16
2018-02-21T13:13:14.308Z,8.47
2018-02-21T13:14:14.303Z,8.53
2018-02-21T13:15:14.306Z,8.50
2018-02-21T13:16:14.274Z,8.41
2018-02-21T13:17:14.312Z,8.37
2018-02-21T13:18:14.554Z,8.65
2018-02-21T13:19:14.235Z,8.98
2018-02-21T13:20:14.225Z,8.86
2018-02-21T13:21:14.286Z,9.03
2018-02-21T13:22:14.270Z,9.16
2018-02-21T13:23:14.188Z,9.80
2018-02-21T13:24:14.472Z,10.48
2018-02-21T13:25:15.090Z,10.62
2018-02-21T13:26:14.411Z,10.82
2018-02-21T13:27:14.393Z,10.70
2018-02-21T13:28:14.401Z,10.42
2018-02-21T13:29:14.200Z,9.72
2018-02-21T13:30:14.403Z,9.62
2018-02-21T13:31:14.095Z,9.65
2018-02-21T13:32:14.500Z,9.47
2018-02-21T13:34:14.050Z,8.92
2018-02-21T13:36:14.329Z,8.96
2018-02-21T13:37:14.017Z,8.72
2018-02-21T13:38:14.003Z,8.55
2018-02-21T13:39:14.125Z,8.35
2018-02-21T13:40:14.062Z,8.38